sensor_id;sensor_type;location;lat;lon;timestamp;temperature;humidity
19050;DHT22;9657;45.940;12.840;2022-10-17T00:00:45;21.60;62.90
19050;DHT22;9657;45.940;12.840;2022-10-17T00:03:12;21.60;62.80
19050;DHT22;9657;45.940;12.840;2022-10-17T00:05:39;21.60;62.80
19050;DHT22;9657;45.940;12.840;2022-10-17T00:08:06;21.50;62.80
19050;DHT22;9657;45.940;12.840;2022-10-17T00:10:35;21.60;62.80
19050;DHT22;9657;45.940;12.840;2022-10-17T00:13:02;21.60;62.80
19050;DHT22;9657;45.940;12.840;2022-10-17T00:15:30;21.60;62.80
19050;DHT22;9657;45.940;12.840;2022-10-17T00:17:58;21.60;62.80
19050;DHT22;9657;45.940;12.840;2022-10-17T00:20:25;21.60;62.90
19050;DHT22;9657;45.940;12.840;2022-10-17T00:22:52;21.50;62.80
19050;DHT22;9657;45.940;12.840;2022-10-17T00:25:19;21.50;62.80
19050;DHT22;9657;45.940;12.840;2022-10-17T00:27:47;21.50;62.80
19050;DHT22;9657;45.940;12.840;2022-10-17T00:30:15;21.50;62.70
19050;DHT22;9657;45.940;12.840;2022-10-17T00:32:42;21.50;62.80
19050;DHT22;9657;45.940;12.840;2022-10-17T00:35:09;21.50;62.80
19050;DHT22;9657;45.940;12.840;2022-10-17T00:37:36;21.50;62.80
19050;DHT22;9657;45.940;12.840;2022-10-17T00:40:05;21.60;62.80
19050;DHT22;9657;45.940;12.840;2022-10-17T00:42:32;21.60;62.80
19050;DHT22;9657;45.940;12.840;2022-10-17T00:45:18;21.50;62.80
19050;DHT22;9657;45.940;12.840;2022-10-17T00:47:48;21.60;62.80
19050;DHT22;9657;45.940;12.840;2022-10-17T00:50:17;21.50;62.80
19050;DHT22;9657;45.940;12.840;2022-10-17T00:52:46;21.60;62.80
19050;DHT22;9657;45.940;12.840;2022-10-17T00:55:16;21.60;62.80
19050;DHT22;9657;45.940;12.840;2022-10-17T00:57:44;21.50;62.80
19050;DHT22;9657;45.940;12.840;2022-10-17T01:02:51;21.50;62.80
19050;DHT22;9657;45.940;12.840;2022-10-17T01:05:20;21.60;62.80
19050;DHT22;9657;45.940;12.840;2022-10-17T01:07:49;21.60;62.80
19050;DHT22;9657;45.940;12.840;2022-10-17T01:10:18;21.50;62.80
19050;DHT22;9657;45.940;12.840;2022-10-17T01:13:03;21.60;62.80
19050;DHT22;9657;45.940;12.840;2022-10-17T01:15:43;21.50;62.80
19050;DHT22;9657;45.940;12.840;2022-10-17T01:18:23;21.50;62.80
19050;DHT22;9657;45.940;12.840;2022-10-17T01:21:19;21.60;62.80
19050;DHT22;9657;45.940;12.840;2022-10-17T01:24:09;21.60;62.80
19050;DHT22;9657;45.940;12.840;2022-10-17T01:26:57;21.50;62.70
19050;DHT22;9657;45.940;12.840;2022-10-17T01:29:51;21.50;62.70
19050;DHT22;9657;45.940;12.840;2022-10-17T01:32:28;21.50;62.70
19050;DHT22;9657;45.940;12.840;2022-10-17T01:35:00;21.50;62.70
19050;DHT22;9657;45.940;12.840;2022-10-17T01:37:31;21.50;62.70
19050;DHT22;9657;45.940;12.840;2022-10-17T01:40:03;21.50;62.70
19050;DHT22;9657;45.940;12.840;2022-10-17T01:42:38;21.50;62.70
19050;DHT22;9657;45.940;12.840;2022-10-17T01:45:12;21.50;62.60
19050;DHT22;9657;45.940;12.840;2022-10-17T01:47:42;21.50;62.60
19050;DHT22;9657;45.940;12.840;2022-10-17T01:50:17;21.50;62.70
19050;DHT22;9657;45.940;12.840;2022-10-17T01:52:48;21.50;62.70
19050;DHT22;9657;45.940;12.840;2022-10-17T01:55:19;21.50;62.60
19050;DHT22;9657;45.940;12.840;2022-10-17T01:57:50;21.50;62.60
19050;DHT22;9657;45.940;12.840;2022-10-17T02:00:19;21.50;62.60
19050;DHT22;9657;45.940;12.840;2022-10-17T02:02:51;21.50;62.60
19050;DHT22;9657;45.940;12.840;2022-10-17T02:05:22;21.50;62.60
19050;DHT22;9657;45.940;12.840;2022-10-17T02:07:50;21.50;62.60
19050;DHT22;9657;45.940;12.840;2022-10-17T02:10:20;21.50;62.60
19050;DHT22;9657;45.940;12.840;2022-10-17T02:12:54;21.50;62.60
19050;DHT22;9657;45.940;12.840;2022-10-17T02:15:39;21.50;62.60
19050;DHT22;9657;45.940;12.840;2022-10-17T02:18:20;21.50;62.60
19050;DHT22;9657;45.940;12.840;2022-10-17T02:20:53;21.50;62.60
19050;DHT22;9657;45.940;12.840;2022-10-17T02:23:26;21.50;62.50
19050;DHT22;9657;45.940;12.840;2022-10-17T02:26:01;21.50;62.50
19050;DHT22;9657;45.940;12.840;2022-10-17T02:28:37;21.50;62.60
19050;DHT22;9657;45.940;12.840;2022-10-17T02:31:07;21.40;62.50
19050;DHT22;9657;45.940;12.840;2022-10-17T02:33:42;21.40;62.50
19050;DHT22;9657;45.940;12.840;2022-10-17T02:36:13;21.50;62.50
19050;DHT22;9657;45.940;12.840;2022-10-17T02:38:41;21.50;62.50
19050;DHT22;9657;45.940;12.840;2022-10-17T02:41:12;21.50;62.50
19050;DHT22;9657;45.940;12.840;2022-10-17T02:43:40;21.50;62.50
19050;DHT22;9657;45.940;12.840;2022-10-17T02:46:10;21.50;62.50
19050;DHT22;9657;45.940;12.840;2022-10-17T02:48:41;21.50;62.50
19050;DHT22;9657;45.940;12.840;2022-10-17T02:51:14;21.50;62.50
19050;DHT22;9657;45.940;12.840;2022-10-17T02:53:47;21.50;62.50
19050;DHT22;9657;45.940;12.840;2022-10-17T02:56:19;21.40;62.40
19050;DHT22;9657;45.940;12.840;2022-10-17T02:58:50;21.50;62.50
19050;DHT22;9657;45.940;12.840;2022-10-17T03:01:19;21.50;62.50
19050;DHT22;9657;45.940;12.840;2022-10-17T03:03:48;21.50;62.50
19050;DHT22;9657;45.940;12.840;2022-10-17T03:06:16;21.50;62.50
19050;DHT22;9657;45.940;12.840;2022-10-17T03:08:43;21.50;62.50
19050;DHT22;9657;45.940;12.840;2022-10-17T03:11:10;21.40;62.40
19050;DHT22;9657;45.940;12.840;2022-10-17T03:13:37;21.50;62.50
19050;DHT22;9657;45.940;12.840;2022-10-17T03:16:04;21.40;63.20
19050;DHT22;9657;45.940;12.840;2022-10-17T03:18:31;21.40;62.40
19050;DHT22;9657;45.940;12.840;2022-10-17T03:21:00;21.50;62.50
19050;DHT22;9657;45.940;12.840;2022-10-17T03:23:27;21.40;62.40
19050;DHT22;9657;45.940;12.840;2022-10-17T03:25:54;21.40;62.30
19050;DHT22;9657;45.940;12.840;2022-10-17T03:28:21;21.40;62.40
19050;DHT22;9657;45.940;12.840;2022-10-17T03:30:48;21.40;62.40
19050;DHT22;9657;45.940;12.840;2022-10-17T03:33:15;21.40;62.40
19050;DHT22;9657;45.940;12.840;2022-10-17T03:35:42;21.40;62.40
19050;DHT22;9657;45.940;12.840;2022-10-17T03:38:11;21.40;62.30
19050;DHT22;9657;45.940;12.840;2022-10-17T03:40:38;21.40;62.40
19050;DHT22;9657;45.940;12.840;2022-10-17T03:43:05;21.40;62.40
19050;DHT22;9657;45.940;12.840;2022-10-17T03:45:32;21.40;62.30
19050;DHT22;9657;45.940;12.840;2022-10-17T03:47:59;21.40;62.30
19050;DHT22;9657;45.940;12.840;2022-10-17T03:50:26;21.40;62.30
19050;DHT22;9657;45.940;12.840;2022-10-17T03:52:53;21.40;62.30
19050;DHT22;9657;45.940;12.840;2022-10-17T03:55:22;21.40;62.30
19050;DHT22;9657;45.940;12.840;2022-10-17T03:57:49;21.40;62.30
19050;DHT22;9657;45.940;12.840;2022-10-17T04:00:17;21.40;62.30
19050;DHT22;9657;45.940;12.840;2022-10-17T04:02:44;21.40;62.30
19050;DHT22;9657;45.940;12.840;2022-10-17T04:05:11;21.40;62.30
19050;DHT22;9657;45.940;12.840;2022-10-17T04:07:38;21.40;62.30
19050;DHT22;9657;45.940;12.840;2022-10-17T04:10:06;21.40;62.30
19050;DHT22;9657;45.940;12.840;2022-10-17T04:12:34;21.40;62.30
19050;DHT22;9657;45.940;12.840;2022-10-17T04:15:01;21.40;62.30
19050;DHT22;9657;45.940;12.840;2022-10-17T04:17:30;21.40;62.30
19050;DHT22;9657;45.940;12.840;2022-10-17T04:19:57;21.40;62.30
19050;DHT22;9657;45.940;12.840;2022-10-17T04:22:24;21.40;62.30
19050;DHT22;9657;45.940;12.840;2022-10-17T04:24:51;21.40;62.30
19050;DHT22;9657;45.940;12.840;2022-10-17T04:27:18;21.30;62.20
19050;DHT22;9657;45.940;12.840;2022-10-17T04:29:47;21.40;62.30
19050;DHT22;9657;45.940;12.840;2022-10-17T04:32:14;21.30;62.20
19050;DHT22;9657;45.940;12.840;2022-10-17T04:34:41;21.40;62.30
19050;DHT22;9657;45.940;12.840;2022-10-17T04:37:09;21.40;62.30
19050;DHT22;9657;45.940;12.840;2022-10-17T04:39:36;21.40;62.30
19050;DHT22;9657;45.940;12.840;2022-10-17T04:42:03;21.40;62.20
19050;DHT22;9657;45.940;12.840;2022-10-17T04:44:30;21.40;62.20
19050;DHT22;9657;45.940;12.840;2022-10-17T04:46:59;21.40;62.20
19050;DHT22;9657;45.940;12.840;2022-10-17T04:49:26;21.40;62.20
19050;DHT22;9657;45.940;12.840;2022-10-17T04:51:53;21.30;62.20
19050;DHT22;9657;45.940;12.840;2022-10-17T04:54:20;21.40;62.20
19050;DHT22;9657;45.940;12.840;2022-10-17T04:56:47;21.40;62.20
19050;DHT22;9657;45.940;12.840;2022-10-17T04:59:14;21.40;62.20
19050;DHT22;9657;45.940;12.840;2022-10-17T05:01:41;21.40;62.20
19050;DHT22;9657;45.940;12.840;2022-10-17T05:04:10;21.30;62.20
19050;DHT22;9657;45.940;12.840;2022-10-17T05:06:37;21.30;62.20
19050;DHT22;9657;45.940;12.840;2022-10-17T05:09:04;21.30;62.20
19050;DHT22;9657;45.940;12.840;2022-10-17T05:11:31;21.30;62.20
19050;DHT22;9657;45.940;12.840;2022-10-17T05:13:59;21.30;62.20
19050;DHT22;9657;45.940;12.840;2022-10-17T05:16:27;21.30;62.20
19050;DHT22;9657;45.940;12.840;2022-10-17T05:18:56;21.30;62.20
19050;DHT22;9657;45.940;12.840;2022-10-17T05:21:28;21.30;62.20
19050;DHT22;9657;45.940;12.840;2022-10-17T05:23:56;21.30;62.20
19050;DHT22;9657;45.940;12.840;2022-10-17T05:26:23;21.30;62.20
19050;DHT22;9657;45.940;12.840;2022-10-17T05:28:51;21.30;62.20
19050;DHT22;9657;45.940;12.840;2022-10-17T05:31:19;21.30;62.20
19050;DHT22;9657;45.940;12.840;2022-10-17T05:33:46;21.30;62.20
19050;DHT22;9657;45.940;12.840;2022-10-17T05:36:13;21.30;62.20
19050;DHT22;9657;45.940;12.840;2022-10-17T05:38:42;21.30;62.20
19050;DHT22;9657;45.940;12.840;2022-10-17T05:41:09;21.30;62.20
19050;DHT22;9657;45.940;12.840;2022-10-17T05:43:36;21.30;62.20
19050;DHT22;9657;45.940;12.840;2022-10-17T05:46:04;21.30;62.20
19050;DHT22;9657;45.940;12.840;2022-10-17T05:48:32;21.30;62.20
19050;DHT22;9657;45.940;12.840;2022-10-17T05:51:00;21.30;62.20
19050;DHT22;9657;45.940;12.840;2022-10-17T05:53:30;21.30;62.20
19050;DHT22;9657;45.940;12.840;2022-10-17T05:56:01;21.30;62.20
19050;DHT22;9657;45.940;12.840;2022-10-17T05:58:28;21.30;62.20
19050;DHT22;9657;45.940;12.840;2022-10-17T06:00:59;21.30;62.20
19050;DHT22;9657;45.940;12.840;2022-10-17T06:03:26;21.30;62.20
19050;DHT22;9657;45.940;12.840;2022-10-17T06:05:53;21.20;62.10
19050;DHT22;9657;45.940;12.840;2022-10-17T06:08:21;21.30;62.20
19050;DHT22;9657;45.940;12.840;2022-10-17T06:10:49;21.30;62.20
19050;DHT22;9657;45.940;12.840;2022-10-17T06:13:17;21.30;62.20
19050;DHT22;9657;45.940;12.840;2022-10-17T06:15:44;21.30;62.20
19050;DHT22;9657;45.940;12.840;2022-10-17T06:18:12;21.20;62.30
19050;DHT22;9657;45.940;12.840;2022-10-17T06:20:39;21.20;62.30
19050;DHT22;9657;45.940;12.840;2022-10-17T06:23:06;21.30;62.30
19050;DHT22;9657;45.940;12.840;2022-10-17T06:25:33;21.30;62.40
19050;DHT22;9657;45.940;12.840;2022-10-17T06:28:00;21.30;62.50
19050;DHT22;9657;45.940;12.840;2022-10-17T06:30:29;21.20;62.30
19050;DHT22;9657;45.940;12.840;2022-10-17T06:32:56;21.20;62.30
19050;DHT22;9657;45.940;12.840;2022-10-17T06:35:23;21.30;62.40
19050;DHT22;9657;45.940;12.840;2022-10-17T06:37:50;21.30;62.40
19050;DHT22;9657;45.940;12.840;2022-10-17T06:40:17;21.30;62.40
19050;DHT22;9657;45.940;12.840;2022-10-17T06:42:44;21.20;62.30
19050;DHT22;9657;45.940;12.840;2022-10-17T06:45:11;21.20;62.40
19050;DHT22;9657;45.940;12.840;2022-10-17T06:47:39;21.30;62.40
19050;DHT22;9657;45.940;12.840;2022-10-17T06:50:07;21.30;62.40
19050;DHT22;9657;45.940;12.840;2022-10-17T06:52:34;21.20;62.30
19050;DHT22;9657;45.940;12.840;2022-10-17T06:55:01;21.30;62.40
19050;DHT22;9657;45.940;12.840;2022-10-17T06:57:28;21.30;62.50
19050;DHT22;9657;45.940;12.840;2022-10-17T06:59:55;21.20;62.30
19050;DHT22;9657;45.940;12.840;2022-10-17T07:02:22;21.30;62.40
19050;DHT22;9657;45.940;12.840;2022-10-17T07:04:51;21.20;62.30
19050;DHT22;9657;45.940;12.840;2022-10-17T07:07:18;21.20;62.40
19050;DHT22;9657;45.940;12.840;2022-10-17T07:09:45;21.20;62.40
19050;DHT22;9657;45.940;12.840;2022-10-17T07:12:12;21.20;62.30
19050;DHT22;9657;45.940;12.840;2022-10-17T07:14:39;21.20;62.40
19050;DHT22;9657;45.940;12.840;2022-10-17T07:17:06;21.20;62.40
19050;DHT22;9657;45.940;12.840;2022-10-17T07:19:35;21.20;62.40
19050;DHT22;9657;45.940;12.840;2022-10-17T07:22:03;21.20;62.40
19050;DHT22;9657;45.940;12.840;2022-10-17T07:24:30;21.20;62.50
19050;DHT22;9657;45.940;12.840;2022-10-17T07:26:57;21.20;62.40
19050;DHT22;9657;45.940;12.840;2022-10-17T07:29:24;21.20;62.50
19050;DHT22;9657;45.940;12.840;2022-10-17T07:31:51;21.20;62.40
19050;DHT22;9657;45.940;12.840;2022-10-17T07:34:19;21.20;62.40
19050;DHT22;9657;45.940;12.840;2022-10-17T07:36:46;21.20;62.40
19050;DHT22;9657;45.940;12.840;2022-10-17T07:39:14;21.20;62.50
19050;DHT22;9657;45.940;12.840;2022-10-17T07:41:41;21.20;62.40
19050;DHT22;9657;45.940;12.840;2022-10-17T07:44:08;21.20;62.40
19050;DHT22;9657;45.940;12.840;2022-10-17T07:46:36;21.20;62.50
19050;DHT22;9657;45.940;12.840;2022-10-17T07:49:03;21.20;62.50
19050;DHT22;9657;45.940;12.840;2022-10-17T07:51:30;21.20;62.50
19050;DHT22;9657;45.940;12.840;2022-10-17T07:53:57;21.20;62.50
19050;DHT22;9657;45.940;12.840;2022-10-17T07:56:25;21.20;62.50
19050;DHT22;9657;45.940;12.840;2022-10-17T07:58:54;21.20;62.50
19050;DHT22;9657;45.940;12.840;2022-10-17T08:01:22;21.20;62.50
19050;DHT22;9657;45.940;12.840;2022-10-17T08:03:50;21.20;62.50
19050;DHT22;9657;45.940;12.840;2022-10-17T08:06:17;21.20;62.50
19050;DHT22;9657;45.940;12.840;2022-10-17T08:08:45;21.20;62.50
19050;DHT22;9657;45.940;12.840;2022-10-17T08:11:13;21.20;62.50
19050;DHT22;9657;45.940;12.840;2022-10-17T08:13:41;21.20;62.50
19050;DHT22;9657;45.940;12.840;2022-10-17T08:16:10;21.20;62.50
19050;DHT22;9657;45.940;12.840;2022-10-17T08:18:39;21.20;62.50
19050;DHT22;9657;45.940;12.840;2022-10-17T08:21:06;21.20;62.50
19050;DHT22;9657;45.940;12.840;2022-10-17T08:23:34;21.20;62.50
19050;DHT22;9657;45.940;12.840;2022-10-17T08:26:03;21.20;62.50
19050;DHT22;9657;45.940;12.840;2022-10-17T08:28:33;21.20;62.50
19050;DHT22;9657;45.940;12.840;2022-10-17T08:31:06;21.20;62.50
19050;DHT22;9657;45.940;12.840;2022-10-17T08:33:33;21.20;62.50
19050;DHT22;9657;45.940;12.840;2022-10-17T08:36:01;21.20;62.50
19050;DHT22;9657;45.940;12.840;2022-10-17T08:38:29;21.30;62.60
19050;DHT22;9657;45.940;12.840;2022-10-17T08:40:59;21.30;62.60
19050;DHT22;9657;45.940;12.840;2022-10-17T08:43:42;21.20;63.30
19050;DHT22;9657;45.940;12.840;2022-10-17T08:46:13;21.30;62.60
19050;DHT22;9657;45.940;12.840;2022-10-17T08:48:43;21.20;63.30
19050;DHT22;9657;45.940;12.840;2022-10-17T08:51:14;21.20;62.50
19050;DHT22;9657;45.940;12.840;2022-10-17T08:53:45;21.20;62.50
19050;DHT22;9657;45.940;12.840;2022-10-17T08:56:18;21.30;62.60
19050;DHT22;9657;45.940;12.840;2022-10-17T08:58:45;21.30;62.60
19050;DHT22;9657;45.940;12.840;2022-10-17T09:01:28;21.20;62.50
19050;DHT22;9657;45.940;12.840;2022-10-17T09:04:31;21.20;62.60
19050;DHT22;9657;45.940;12.840;2022-10-17T09:07:05;21.30;62.70
19050;DHT22;9657;45.940;12.840;2022-10-17T09:09:39;21.30;62.70
19050;DHT22;9657;45.940;12.840;2022-10-17T09:12:16;21.30;62.60
19050;DHT22;9657;45.940;12.840;2022-10-17T09:15:08;21.30;63.50
19050;DHT22;9657;45.940;12.840;2022-10-17T09:17:44;21.30;62.70
19050;DHT22;9657;45.940;12.840;2022-10-17T09:20:19;21.20;62.60
19050;DHT22;9657;45.940;12.840;2022-10-17T09:22:52;21.30;62.60
19050;DHT22;9657;45.940;12.840;2022-10-17T09:25:20;21.30;62.70
19050;DHT22;9657;45.940;12.840;2022-10-17T09:27:50;21.20;62.60
19050;DHT22;9657;45.940;12.840;2022-10-17T09:30:33;21.20;62.60
19050;DHT22;9657;45.940;12.840;2022-10-17T09:33:09;21.30;62.70
19050;DHT22;9657;45.940;12.840;2022-10-17T09:35:38;21.30;62.70
19050;DHT22;9657;45.940;12.840;2022-10-17T09:38:12;21.30;62.70
19050;DHT22;9657;45.940;12.840;2022-10-17T09:40:41;21.30;62.70
19050;DHT22;9657;45.940;12.840;2022-10-17T09:43:11;21.30;62.70
19050;DHT22;9657;45.940;12.840;2022-10-17T09:45:44;21.30;62.70
19050;DHT22;9657;45.940;12.840;2022-10-17T09:48:20;21.30;62.70
19050;DHT22;9657;45.940;12.840;2022-10-17T09:50:49;21.30;62.70
19050;DHT22;9657;45.940;12.840;2022-10-17T09:53:21;21.30;62.60
19050;DHT22;9657;45.940;12.840;2022-10-17T09:55:51;21.30;62.70
19050;DHT22;9657;45.940;12.840;2022-10-17T09:58:21;21.30;62.70
19050;DHT22;9657;45.940;12.840;2022-10-17T10:00:48;21.30;62.70
19050;DHT22;9657;45.940;12.840;2022-10-17T10:03:18;21.30;62.70
19050;DHT22;9657;45.940;12.840;2022-10-17T10:06:00;21.30;62.70
19050;DHT22;9657;45.940;12.840;2022-10-17T10:08:30;21.30;62.70
19050;DHT22;9657;45.940;12.840;2022-10-17T10:11:00;21.30;62.70
19050;DHT22;9657;45.940;12.840;2022-10-17T10:13:29;21.30;62.70
19050;DHT22;9657;45.940;12.840;2022-10-17T10:16:14;21.40;62.70
19050;DHT22;9657;45.940;12.840;2022-10-17T10:18:43;21.30;62.60
19050;DHT22;9657;45.940;12.840;2022-10-17T10:21:13;21.30;62.60
19050;DHT22;9657;45.940;12.840;2022-10-17T10:23:42;21.30;62.60
19050;DHT22;9657;45.940;12.840;2022-10-17T10:26:23;21.40;62.70
19050;DHT22;9657;45.940;12.840;2022-10-17T10:28:54;21.30;62.60
19050;DHT22;9657;45.940;12.840;2022-10-17T10:31:29;21.40;62.60
19050;DHT22;9657;45.940;12.840;2022-10-17T10:33:59;21.40;62.60
19050;DHT22;9657;45.940;12.840;2022-10-17T10:36:47;21.30;62.50
19050;DHT22;9657;45.940;12.840;2022-10-17T10:39:26;21.40;62.60
19050;DHT22;9657;45.940;12.840;2022-10-17T10:41:54;21.40;62.60
19050;DHT22;9657;45.940;12.840;2022-10-17T10:44:25;21.40;62.60
19050;DHT22;9657;45.940;12.840;2022-10-17T10:47:13;21.30;62.50
19050;DHT22;9657;45.940;12.840;2022-10-17T10:49:44;21.40;62.60
19050;DHT22;9657;45.940;12.840;2022-10-17T10:52:15;21.40;62.50
19050;DHT22;9657;45.940;12.840;2022-10-17T10:54:50;21.40;62.50
19050;DHT22;9657;45.940;12.840;2022-10-17T10:57:21;21.40;62.50
19050;DHT22;9657;45.940;12.840;2022-10-17T10:59:55;21.40;62.50
19050;DHT22;9657;45.940;12.840;2022-10-17T11:02:26;21.40;62.50
19050;DHT22;9657;45.940;12.840;2022-10-17T11:05:02;21.40;62.50
19050;DHT22;9657;45.940;12.840;2022-10-17T11:07:33;21.40;62.50
19050;DHT22;9657;45.940;12.840;2022-10-17T11:10:07;21.40;62.50
19050;DHT22;9657;45.940;12.840;2022-10-17T11:12:39;21.40;62.50
19050;DHT22;9657;45.940;12.840;2022-10-17T11:15:16;21.40;62.60
19050;DHT22;9657;45.940;12.840;2022-10-17T11:17:51;21.50;62.70
19050;DHT22;9657;45.940;12.840;2022-10-17T11:20:31;21.50;62.60
19050;DHT22;9657;45.940;12.840;2022-10-17T11:23:10;21.50;62.60
19050;DHT22;9657;45.940;12.840;2022-10-17T11:25:39;21.40;62.50
19050;DHT22;9657;45.940;12.840;2022-10-17T11:28:13;21.50;62.60
19050;DHT22;9657;45.940;12.840;2022-10-17T11:30:47;21.40;62.50
19050;DHT22;9657;45.940;12.840;2022-10-17T11:33:20;21.40;62.60
19050;DHT22;9657;45.940;12.840;2022-10-17T11:35:53;21.50;62.60
19050;DHT22;9657;45.940;12.840;2022-10-17T11:38:26;21.50;62.60
19050;DHT22;9657;45.940;12.840;2022-10-17T11:40:57;21.40;62.50
19050;DHT22;9657;45.940;12.840;2022-10-17T11:43:28;21.40;62.50
19050;DHT22;9657;45.940;12.840;2022-10-17T11:46:01;21.50;62.50
19050;DHT22;9657;45.940;12.840;2022-10-17T11:48:34;21.40;62.50
19050;DHT22;9657;45.940;12.840;2022-10-17T11:51:08;21.50;62.50
19050;DHT22;9657;45.940;12.840;2022-10-17T11:53:46;21.50;62.60
19050;DHT22;9657;45.940;12.840;2022-10-17T11:56:18;21.50;62.60
19050;DHT22;9657;45.940;12.840;2022-10-17T11:58:51;21.50;62.60
19050;DHT22;9657;45.940;12.840;2022-10-17T12:01:25;21.50;62.50
19050;DHT22;9657;45.940;12.840;2022-10-17T12:04:15;21.50;62.50
19050;DHT22;9657;45.940;12.840;2022-10-17T12:06:57;21.50;62.50
19050;DHT22;9657;45.940;12.840;2022-10-17T12:09:31;21.50;62.50
19050;DHT22;9657;45.940;12.840;2022-10-17T12:12:01;21.50;62.50
19050;DHT22;9657;45.940;12.840;2022-10-17T12:14:39;21.50;62.40
19050;DHT22;9657;45.940;12.840;2022-10-17T12:17:29;21.50;62.50
19050;DHT22;9657;45.940;12.840;2022-10-17T12:20:16;21.50;62.50
19050;DHT22;9657;45.940;12.840;2022-10-17T12:22:52;21.50;62.50
19050;DHT22;9657;45.940;12.840;2022-10-17T12:25:22;21.50;62.50
19050;DHT22;9657;45.940;12.840;2022-10-17T12:28:11;21.60;62.50
19050;DHT22;9657;45.940;12.840;2022-10-17T12:30:49;21.50;62.50
19050;DHT22;9657;45.940;12.840;2022-10-17T12:33:19;21.50;62.50
19050;DHT22;9657;45.940;12.840;2022-10-17T12:35:48;21.50;62.50
19050;DHT22;9657;45.940;12.840;2022-10-17T12:38:26;21.50;62.40
19050;DHT22;9657;45.940;12.840;2022-10-17T12:41:04;21.50;62.40
19050;DHT22;9657;45.940;12.840;2022-10-17T12:43:47;21.50;62.50
19050;DHT22;9657;45.940;12.840;2022-10-17T12:52:25;21.60;62.50
19050;DHT22;9657;45.940;12.840;2022-10-17T12:55:05;21.60;62.50
19050;DHT22;9657;45.940;12.840;2022-10-17T12:57:42;21.60;62.50
19050;DHT22;9657;45.940;12.840;2022-10-17T13:00:18;21.60;62.50
19050;DHT22;9657;45.940;12.840;2022-10-17T13:02:46;21.60;62.50
19050;DHT22;9657;45.940;12.840;2022-10-17T13:05:25;21.60;62.50
19050;DHT22;9657;45.940;12.840;2022-10-17T13:07:54;21.60;62.50
19050;DHT22;9657;45.940;12.840;2022-10-17T13:10:26;21.60;62.40
19050;DHT22;9657;45.940;12.840;2022-10-17T13:13:01;21.60;62.40
19050;DHT22;9657;45.940;12.840;2022-10-17T13:15:30;21.60;62.50
19050;DHT22;9657;45.940;12.840;2022-10-17T13:17:58;21.60;62.40
19050;DHT22;9657;45.940;12.840;2022-10-17T13:20:28;21.60;62.40
19050;DHT22;9657;45.940;12.840;2022-10-17T13:22:56;21.60;62.40
19050;DHT22;9657;45.940;12.840;2022-10-17T13:25:26;21.60;62.40
19050;DHT22;9657;45.940;12.840;2022-10-17T13:28:05;21.60;62.40
19050;DHT22;9657;45.940;12.840;2022-10-17T13:30:33;21.60;62.40
19050;DHT22;9657;45.940;12.840;2022-10-17T13:33:02;21.60;62.40
19050;DHT22;9657;45.940;12.840;2022-10-17T13:35:31;21.60;62.40
19050;DHT22;9657;45.940;12.840;2022-10-17T13:38:01;21.60;62.40
19050;DHT22;9657;45.940;12.840;2022-10-17T13:40:40;21.60;62.40
19050;DHT22;9657;45.940;12.840;2022-10-17T13:43:14;21.70;62.40
19050;DHT22;9657;45.940;12.840;2022-10-17T13:45:45;21.70;62.40
19050;DHT22;9657;45.940;12.840;2022-10-17T13:48:19;21.60;62.40
19050;DHT22;9657;45.940;12.840;2022-10-17T13:50:49;21.70;62.40
19050;DHT22;9657;45.940;12.840;2022-10-17T13:53:20;21.70;62.40
19050;DHT22;9657;45.940;12.840;2022-10-17T13:55:53;21.70;62.40
19050;DHT22;9657;45.940;12.840;2022-10-17T13:58:20;21.70;62.40
19050;DHT22;9657;45.940;12.840;2022-10-17T14:00:48;21.70;62.40
19050;DHT22;9657;45.940;12.840;2022-10-17T14:03:18;21.70;62.40
19050;DHT22;9657;45.940;12.840;2022-10-17T14:06:04;21.70;62.40
19050;DHT22;9657;45.940;12.840;2022-10-17T14:08:35;21.80;62.40
19050;DHT22;9657;45.940;12.840;2022-10-17T14:11:13;21.70;62.40
19050;DHT22;9657;45.940;12.840;2022-10-17T14:13:41;21.70;62.40
19050;DHT22;9657;45.940;12.840;2022-10-17T14:16:09;21.70;62.30
19050;DHT22;9657;45.940;12.840;2022-10-17T14:18:36;21.80;62.40
19050;DHT22;9657;45.940;12.840;2022-10-17T14:21:05;21.80;62.40
19050;DHT22;9657;45.940;12.840;2022-10-17T14:23:35;21.80;62.40
19050;DHT22;9657;45.940;12.840;2022-10-17T14:26:07;21.80;62.40
19050;DHT22;9657;45.940;12.840;2022-10-17T14:28:35;21.80;62.40
19050;DHT22;9657;45.940;12.840;2022-10-17T14:31:28;21.80;62.40
19050;DHT22;9657;45.940;12.840;2022-10-17T14:33:56;21.80;62.40
19050;DHT22;9657;45.940;12.840;2022-10-17T14:36:32;21.80;62.30
19050;DHT22;9657;45.940;12.840;2022-10-17T14:39:00;21.80;62.40
19050;DHT22;9657;45.940;12.840;2022-10-17T14:41:31;21.80;62.40
19050;DHT22;9657;45.940;12.840;2022-10-17T14:44:01;21.80;62.40
19050;DHT22;9657;45.940;12.840;2022-10-17T14:46:29;21.80;62.40
19050;DHT22;9657;45.940;12.840;2022-10-17T14:49:03;21.80;62.40
19050;DHT22;9657;45.940;12.840;2022-10-17T14:51:30;21.80;62.40
19050;DHT22;9657;45.940;12.840;2022-10-17T14:54:03;21.80;62.30
19050;DHT22;9657;45.940;12.840;2022-10-17T14:56:39;21.80;62.40
19050;DHT22;9657;45.940;12.840;2022-10-17T14:59:06;21.80;62.30
19050;DHT22;9657;45.940;12.840;2022-10-17T15:01:35;21.80;62.30
19050;DHT22;9657;45.940;12.840;2022-10-17T15:04:02;21.80;62.30
19050;DHT22;9657;45.940;12.840;2022-10-17T15:06:32;21.80;62.30
19050;DHT22;9657;45.940;12.840;2022-10-17T15:08:59;21.80;62.40
19050;DHT22;9657;45.940;12.840;2022-10-17T15:11:27;21.80;62.30
19050;DHT22;9657;45.940;12.840;2022-10-17T15:13:55;21.80;62.30
19050;DHT22;9657;45.940;12.840;2022-10-17T15:16:24;21.80;62.40
19050;DHT22;9657;45.940;12.840;2022-10-17T15:18:52;21.90;62.50
19050;DHT22;9657;45.940;12.840;2022-10-17T15:21:21;21.80;63.10
19050;DHT22;9657;45.940;12.840;2022-10-17T15:23:48;21.80;62.40
19050;DHT22;9657;45.940;12.840;2022-10-17T15:26:17;21.80;62.40
19050;DHT22;9657;45.940;12.840;2022-10-17T15:28:45;21.90;62.50
19050;DHT22;9657;45.940;12.840;2022-10-17T15:31:17;21.90;62.50
19050;DHT22;9657;45.940;12.840;2022-10-17T15:33:45;21.90;62.50
19050;DHT22;9657;45.940;12.840;2022-10-17T15:36:23;21.90;62.40
19050;DHT22;9657;45.940;12.840;2022-10-17T15:38:53;21.90;62.50
19050;DHT22;9657;45.940;12.840;2022-10-17T15:41:22;21.90;62.40
19050;DHT22;9657;45.940;12.840;2022-10-17T15:43:50;21.90;62.40
19050;DHT22;9657;45.940;12.840;2022-10-17T15:46:20;21.90;62.40
19050;DHT22;9657;45.940;12.840;2022-10-17T15:48:49;21.90;62.40
19050;DHT22;9657;45.940;12.840;2022-10-17T15:51:16;21.90;62.40
19050;DHT22;9657;45.940;12.840;2022-10-17T15:53:44;21.90;62.50
19050;DHT22;9657;45.940;12.840;2022-10-17T15:56:18;21.90;62.40
19050;DHT22;9657;45.940;12.840;2022-10-17T15:58:46;21.90;62.50
19050;DHT22;9657;45.940;12.840;2022-10-17T16:01:21;21.90;62.40